Time;durP1;ratioP1;P1;durP2;ratioP2;P2;SDS_P1;SDS_P2;PMS_P1;PMS_P2;Temp;Humidity;BMP_temperature;BMP_pressure;BME280_temperature;BME280_humidity;BME280_pressure;Samples;Min_cycle;Max_cycle;Signal;HPM_P1;HPM_P2
2023/02/09 00:00:13;;;;;;;16.98;7.60;;;-3.70;99.60;;;;;;5087279;28;20040;-70
2023/02/09 00:02:38;;;;;;;22.33;9.65;;;-3.80;99.50;;;;;;5067101;28;20078;-70
2023/02/09 00:05:04;;;;;;;20.17;9.80;;;-3.80;99.90;;;;;;5077409;28;20032;-70
2023/02/09 00:07:30;;;;;;;17.45;8.20;;;-3.90;99.90;;;;;;5065638;28;20064;-70
2023/02/09 00:09:55;;;;;;;25.17;9.85;;;-3.90;99.90;;;;;;5074302;28;20044;-70
2023/02/09 00:15:06;;;;;;;25.15;9.93;;;-4.00;99.90;;;;;;5048220;28;20087;-55
2023/02/09 00:17:34;;;;;;;25.38;10.63;;;-4.10;99.90;;;;;;5082254;28;20056;-55
2023/02/09 00:20:00;;;;;;;28.35;10.98;;;-4.10;99.90;;;;;;5085930;28;20595;-54
2023/02/09 00:22:26;;;;;;;20.30;9.13;;;-4.10;99.90;;;;;;5073823;28;20103;-55
2023/02/09 00:24:51;;;;;;;21.52;9.10;;;-4.10;99.90;;;;;;5075292;28;20039;-54
2023/02/09 00:27:17;;;;;;;25.73;10.90;;;-4.20;99.90;;;;;;5084799;28;20046;-53
2023/02/09 00:29:42;;;;;;;20.33;10.25;;;-4.20;99.90;;;;;;5058956;28;20029;-54
2023/02/09 00:32:08;;;;;;;23.90;10.15;;;-4.20;99.90;;;;;;5081159;28;20115;-55
2023/02/09 00:34:33;;;;;;;24.60;10.25;;;-4.20;99.90;;;;;;5086118;28;20028;-53
2023/02/09 00:36:59;;;;;;;24.27;10.45;;;-4.30;99.90;;;;;;5071723;28;20463;-54
2023/02/09 00:39:24;;;;;;;22.63;10.82;;;-4.30;99.90;;;;;;5087273;28;20085;-55
2023/02/09 00:42:05;;;;;;;25.48;11.00;;;-4.30;99.90;;;;;;5070053;28;20036;-54
2023/02/09 00:44:34;;;;;;;25.23;11.07;;;-4.30;99.90;;;;;;5064572;28;20045;-55
2023/02/09 00:47:00;;;;;;;22.50;10.73;;;-4.20;99.90;;;;;;5072156;28;20527;-54
2023/02/09 00:49:27;;;;;;;22.17;10.77;;;-4.30;99.90;;;;;;5070481;28;20098;-55
2023/02/09 00:51:52;;;;;;;27.15;10.63;;;-4.30;99.90;;;;;;5066697;28;20471;-55
2023/02/09 00:54:18;;;;;;;21.85;10.27;;;-4.30;99.90;;;;;;5061691;28;20110;-51
2023/02/09 00:56:43;;;;;;;23.50;10.73;;;-4.30;99.90;;;;;;5075616;28;20021;-56
2023/02/09 00:59:09;;;;;;;22.92;9.75;;;-4.30;99.90;;;;;;5070725;28;20024;-55
2023/02/09 01:01:34;;;;;;;26.17;9.88;;;-4.30;99.90;;;;;;5080465;28;20108;-55
2023/02/09 01:04:00;;;;;;;21.38;8.48;;;-4.30;99.90;;;;;;5086261;28;20063;-53
2023/02/09 01:06:26;;;;;;;22.88;10.00;;;-4.40;99.90;;;;;;5061492;28;20032;-55
2023/02/09 01:08:51;;;;;;;20.98;11.40;;;-4.40;99.90;;;;;;5058646;28;20060;-55
2023/02/09 01:11:17;;;;;;;31.85;13.00;;;-4.40;99.90;;;;;;5063142;28;20133;-56
2023/02/09 01:13:43;;;;;;;25.42;11.63;;;-4.30;99.90;;;;;;5059750;28;20512;-53
2023/02/09 01:16:12;;;;;;;25.73;10.98;;;-4.30;99.90;;;;;;5065495;28;20050;-55
2023/02/09 01:18:38;;;;;;;24.85;10.43;;;-4.30;99.90;;;;;;5055678;28;20127;-54
2023/02/09 01:21:09;;;;;;;21.95;9.57;;;-4.30;99.90;;;;;;5064997;28;20174;-54
2023/02/09 01:23:35;;;;;;;23.45;10.65;;;-4.30;99.90;;;;;;5058701;28;20040;-54
2023/02/09 01:26:03;;;;;;;26.75;11.13;;;-4.30;99.90;;;;;;5077074;28;20087;-55
2023/02/09 01:28:29;;;;;;;23.15;11.20;;;-4.30;99.90;;;;;;5064478;28;20535;-56
2023/02/09 01:30:54;;;;;;;20.17;9.95;;;-4.30;99.90;;;;;;5068432;28;20036;-55
2023/02/09 01:33:19;;;;;;;28.30;11.98;;;-4.30;99.90;;;;;;5064241;28;20035;-55
2023/02/09 01:35:45;;;;;;;24.45;10.63;;;-4.30;99.90;;;;;;5074905;28;20028;-54
2023/02/09 01:38:10;;;;;;;23.10;10.43;;;-4.40;99.90;;;;;;5064687;28;20033;-56
2023/02/09 01:40:36;;;;;;;23.48;10.82;;;-4.40;99.90;;;;;;5066414;28;20039;-53
2023/02/09 01:43:01;;;;;;;26.13;9.90;;;-4.40;99.90;;;;;;5069270;28;20032;-54
2023/02/09 01:45:43;;;;;;;24.33;10.15;;;-4.40;99.90;;;;;;5087975;28;20043;-52
2023/02/09 01:48:08;;;;;;;24.50;10.93;;;-4.40;99.90;;;;;;5063793;28;20119;-54
2023/02/09 01:50:38;;;;;;;24.00;11.43;;;-4.50;99.90;;;;;;5087960;28;20103;-47
2023/02/09 01:53:04;;;;;;;26.35;12.38;;;-4.50;99.90;;;;;;5050689;28;20392;-46
2023/02/09 01:55:35;;;;;;;26.02;11.50;;;-4.50;99.90;;;;;;5067926;28;20496;-49
2023/02/09 01:58:06;;;;;;;29.08;12.93;;;-4.50;99.90;;;;;;5065464;28;20116;-50
2023/02/09 02:00:31;;;;;;;29.15;12.18;;;-4.40;99.90;;;;;;5048329;28;20091;-48
2023/02/09 02:03:03;;;;;;;25.33;11.00;;;-4.40;99.90;;;;;;5069997;28;20040;-50
2023/02/09 02:05:32;;;;;;;25.17;11.15;;;-4.40;99.90;;;;;;5059558;28;20032;-45
2023/02/09 02:08:03;;;;;;;33.38;14.23;;;-4.30;99.90;;;;;;5067533;28;20684;-45
2023/02/09 02:10:29;;;;;;;29.42;11.60;;;-4.30;99.90;;;;;;5048172;28;20858;-46
2023/02/09 02:12:56;;;;;;;23.58;10.18;;;-4.30;99.90;;;;;;5070175;28;20045;-49
2023/02/09 02:15:27;;;;;;;29.25;12.93;;;-4.40;99.90;;;;;;5087946;28;20548;-48
2023/02/09 02:18:16;;;;;;;28.17;11.43;;;-4.40;99.90;;;;;;5060675;28;20020;-47
2023/02/09 02:21:24;;;;;;;25.65;11.82;;;-4.40;99.90;;;;;;5051373;28;20033;-53
2023/02/09 02:24:23;;;;;;;20.63;10.10;;;-4.40;99.90;;;;;;5052286;28;20025;-47
2023/02/09 02:26:58;;;;;;;18.70;8.73;;;-4.40;99.90;;;;;;5056044;28;20091;-52
2023/02/09 02:29:51;;;;;;;23.20;8.95;;;-4.40;99.90;;;;;;5072132;28;20031;-47
2023/02/09 02:32:37;;;;;;;22.42;10.27;;;-4.40;99.90;;;;;;5059801;28;20412;-47
2023/02/09 02:35:34;;;;;;;18.30;8.48;;;-4.40;99.90;;;;;;5051491;28;20056;-49
2023/02/09 02:38:20;;;;;;;24.05;9.57;;;-4.50;99.90;;;;;;5051642;28;20120;-53
2023/02/09 02:40:53;;;;;;;17.25;8.95;;;-4.50;99.90;;;;;;5054821;28;20468;-48
2023/02/09 02:43:41;;;;;;;26.67;10.70;;;-4.50;99.90;;;;;;5070722;28;20036;-49
2023/02/09 02:46:19;;;;;;;19.73;9.80;;;-4.60;99.90;;;;;;5058044;28;20028;-45
2023/02/09 02:49:19;;;;;;;21.60;9.35;;;-4.60;99.90;;;;;;5051527;28;20119;-49
2023/02/09 02:51:48;;;;;;;21.70;9.68;;;-4.60;99.90;;;;;;5066215;28;20043;-48
2023/02/09 02:54:17;;;;;;;27.75;10.95;;;-4.70;99.90;;;;;;5091376;28;20038;-45
2023/02/09 02:56:51;;;;;;;31.58;10.73;;;-4.60;99.90;;;;;;5056312;28;20214;-48
2023/02/09 02:59:20;;;;;;;20.95;9.25;;;-4.60;99.90;;;;;;5051466;28;20381;-49
2023/02/09 03:01:54;;;;;;;22.77;9.85;;;-4.60;99.90;;;;;;5075366;28;20613;-46
2023/02/09 03:04:21;;;;;;;25.02;11.27;;;-4.60;99.90;;;;;;5051469;28;20033;-50
2023/02/09 03:06:47;;;;;;;25.45;10.65;;;-4.70;99.90;;;;;;5063373;28;20277;-49
2023/02/09 03:09:12;;;;;;;22.23;9.05;;;-4.60;99.90;;;;;;5091204;28;20270;-51
2023/02/09 03:11:47;;;;;;;22.52;10.00;;;-4.60;99.90;;;;;;5068292;28;20028;-46
2023/02/09 03:15:12;;;;;;;19.52;8.30;;;-4.70;99.90;;;;;;5070870;28;20400;-49
2023/02/09 03:17:48;;;;;;;20.05;9.40;;;-4.70;99.90;;;;;;5006355;28;20395;-50
2023/02/09 03:20:26;;;;;;;28.35;10.15;;;-4.70;99.90;;;;;;4988851;28;20038;-47
2023/02/09 03:22:56;;;;;;;15.23;7.78;;;-4.70;99.90;;;;;;5043106;28;20086;-47
2023/02/09 03:25:43;;;;;;;25.83;9.90;;;-4.70;99.90;;;;;;5051020;28;20033;-47
2023/02/09 03:28:15;;;;;;;21.70;9.25;;;-4.70;99.90;;;;;;5065047;28;20101;-47
2023/02/09 03:30:43;;;;;;;20.27;9.77;;;-4.70;99.90;;;;;;5089564;28;20032;-45
2023/02/09 03:33:24;;;;;;;18.67;8.38;;;-4.70;99.90;;;;;;5052857;28;20482;-45
2023/02/09 03:35:54;;;;;;;24.88;11.40;;;-4.70;99.90;;;;;;5050560;28;20040;-50
2023/02/09 03:38:20;;;;;;;28.65;10.75;;;-4.70;99.90;;;;;;5070902;28;20051;-46
2023/02/09 03:40:45;;;;;;;21.42;10.25;;;-4.60;99.90;;;;;;5089638;28;20044;-50
2023/02/09 03:43:11;;;;;;;27.63;10.45;;;-4.60;99.90;;;;;;5052524;28;20029;-47
2023/02/09 03:45:37;;;;;;;23.13;10.95;;;-4.60;99.90;;;;;;5069710;28;20419;-47
2023/02/09 03:48:04;;;;;;;20.52;10.45;;;-4.60;99.90;;;;;;5072554;28;20547;-47
2023/02/09 03:50:30;;;;;;;24.90;10.10;;;-4.60;99.90;;;;;;5088324;28;20328;-48
2023/02/09 03:52:56;;;;;;;23.45;9.48;;;-4.60;99.90;;;;;;5054364;28;20037;-48
2023/02/09 03:55:22;;;;;;;24.75;10.05;;;-4.60;99.90;;;;;;5089366;28;20397;-46
2023/02/09 03:57:48;;;;;;;26.13;10.73;;;-4.60;99.90;;;;;;5055572;28;20037;-48
2023/02/09 04:00:14;;;;;;;26.02;11.85;;;-4.50;99.90;;;;;;5069114;28;20257;-50
2023/02/09 04:02:39;;;;;;;24.13;10.30;;;-4.50;99.90;;;;;;5075442;28;20032;-48
2023/02/09 04:05:05;;;;;;;22.63;9.68;;;-4.50;99.90;;;;;;5081381;28;20093;-48
2023/02/09 04:07:31;;;;;;;23.15;9.55;;;-4.50;99.90;;;;;;5067767;28;20090;-48
2023/02/09 04:09:56;;;;;;;24.17;10.32;;;-4.50;99.90;;;;;;5089409;28;20097;-50
2023/02/09 04:12:21;;;;;;;25.92;10.77;;;-4.60;99.90;;;;;;5066709;28;20055;-47
2023/02/09 04:14:47;;;;;;;21.05;8.80;;;-4.60;99.90;;;;;;5069559;28;20101;-45
2023/02/09 04:17:12;;;;;;;20.85;9.05;;;-4.60;99.90;;;;;;5087159;28;20032;-45
2023/02/09 04:19:38;;;;;;;16.17;7.80;;;-4.70;99.90;;;;;;5088994;28;20248;-50
2023/02/09 04:22:03;;;;;;;22.95;10.50;;;-4.80;99.90;;;;;;5068164;28;20457;-47
2023/02/09 04:24:29;;;;;;;27.90;11.10;;;-4.80;99.90;;;;;;5069521;28;20025;-45
2023/02/09 04:26:54;;;;;;;19.73;9.18;;;-4.80;99.90;;;;;;5073474;28;20146;-46
2023/02/09 04:29:20;;;;;;;22.42;9.20;;;-4.80;99.90;;;;;;5089444;28;20483;-47
2023/02/09 04:31:45;;;;;;;17.27;8.30;;;-4.80;99.90;;;;;;5055896;28;20417;-49
2023/02/09 04:34:11;;;;;;;16.55;7.90;;;-4.80;99.90;;;;;;5068731;28;20028;-52
2023/02/09 04:36:36;;;;;;;21.77;8.18;;;-4.80;99.90;;;;;;5076155;28;20029;-46
2023/02/09 04:39:02;;;;;;;19.10;8.18;;;-4.80;99.90;;;;;;5088850;28;20051;-50
2023/02/09 04:41:27;;;;;;;23.70;10.15;;;-4.80;99.90;;;;;;5067773;28;20380;-51
2023/02/09 04:43:53;;;;;;;20.85;9.40;;;-4.80;99.90;;;;;;5089073;28;20028;-48
2023/02/09 04:46:19;;;;;;;19.60;8.15;;;-4.90;99.90;;;;;;5068160;28;20538;-50
2023/02/09 04:48:45;;;;;;;18.30;8.43;;;-4.90;99.90;;;;;;5088699;28;20187;-46
2023/02/09 04:51:11;;;;;;;20.75;8.65;;;-4.80;99.90;;;;;;5067607;28;20013;-48
2023/02/09 04:53:37;;;;;;;17.65;8.07;;;-4.80;99.90;;;;;;5069407;28;20017;-48
2023/02/09 04:56:02;;;;;;;25.67;9.82;;;-4.90;99.90;;;;;;5068464;28;20115;-50
2023/02/09 05:01:18;;;;;;;15.93;6.93;;;-4.80;99.90;;;;;;5064706;28;20413;-46
2023/02/09 05:03:44;;;;;;;19.92;9.48;;;-4.80;99.90;;;;;;5048981;28;20112;-45
2023/02/09 05:06:09;;;;;;;21.00;7.60;;;-4.90;99.90;;;;;;5063877;28;20449;-56
2023/02/09 05:08:35;;;;;;;16.45;7.93;;;-4.80;99.90;;;;;;5066748;28;20114;-57
2023/02/09 05:11:01;;;;;;;19.08;7.63;;;-4.80;99.90;;;;;;5088518;28;20459;-57
2023/02/09 05:13:27;;;;;;;17.58;7.35;;;-4.80;99.90;;;;;;5048934;28;20108;-57
2023/02/09 05:15:53;;;;;;;18.10;7.53;;;-4.80;99.90;;;;;;5086799;28;20024;-47
2023/02/09 05:18:20;;;;;;;18.75;8.73;;;-4.80;99.90;;;;;;5050083;28;20033;-46
2023/02/09 05:20:46;;;;;;;17.90;7.18;;;-4.80;99.90;;;;;;5068241;28;20047;-47
2023/02/09 05:23:12;;;;;;;16.65;7.22;;;-4.80;99.90;;;;;;5069722;28;20111;-48
2023/02/09 05:25:38;;;;;;;21.73;9.15;;;-4.80;99.90;;;;;;5088043;28;20455;-48
2023/02/09 05:28:04;;;;;;;15.90;6.93;;;-4.90;99.90;;;;;;5052287;28;20025;-46
2023/02/09 05:30:31;;;;;;;20.63;8.23;;;-4.80;99.90;;;;;;5066440;28;20085;-48
2023/02/09 05:32:57;;;;;;;21.23;8.98;;;-4.80;99.90;;;;;;5071812;28;20023;-46
2023/02/09 05:35:22;;;;;;;23.77;9.20;;;-4.80;99.90;;;;;;5088259;28;20058;-47
2023/02/09 05:37:48;;;;;;;19.77;8.55;;;-4.80;99.90;;;;;;5053908;28;20167;-51
2023/02/09 05:40:14;;;;;;;19.77;8.70;;;-4.80;99.90;;;;;;5067663;28;20404;-46
2023/02/09 05:42:40;;;;;;;19.08;9.45;;;-4.80;99.90;;;;;;5074079;28;20036;-50
2023/02/09 05:45:06;;;;;;;17.55;8.90;;;-4.80;99.90;;;;;;5088172;28;20034;-52
2023/02/09 05:47:32;;;;;;;20.35;8.65;;;-4.90;99.90;;;;;;5064766;28;20028;-51
2023/02/09 05:49:57;;;;;;;19.20;8.13;;;-4.90;99.90;;;;;;5068050;28;20090;-52
2023/02/09 05:52:23;;;;;;;18.63;7.30;;;-4.90;99.90;;;;;;5060805;28;20115;-47
2023/02/09 05:54:48;;;;;;;17.90;8.27;;;-4.90;99.90;;;;;;5086554;28;20294;-49
2023/02/09 05:57:15;;;;;;;19.73;7.32;;;-4.90;99.90;;;;;;5066591;28;20323;-47
2023/02/09 05:59:40;;;;;;;19.52;9.35;;;-5.00;99.90;;;;;;5087835;28;20093;-45
2023/02/09 06:02:06;;;;;;;16.90;7.20;;;-5.00;99.90;;;;;;5066657;28;20540;-50
2023/02/09 06:04:32;;;;;;;14.73;7.50;;;-5.00;99.90;;;;;;5068322;28;20028;-48
2023/02/09 06:06:58;;;;;;;18.63;8.98;;;-5.00;99.90;;;;;;5083382;28;20491;-51
2023/02/09 06:09:23;;;;;;;24.92;9.82;;;-5.10;99.90;;;;;;5088579;28;20067;-48
2023/02/09 06:11:49;;;;;;;18.52;7.97;;;-5.00;99.90;;;;;;5066548;28;20032;-50
2023/02/09 06:14:16;;;;;;;20.63;8.65;;;-5.00;99.90;;;;;;5068049;28;20025;-47
2023/02/09 06:16:42;;;;;;;21.00;7.80;;;-5.00;99.90;;;;;;5083882;28;20042;-47
2023/02/09 06:19:14;;;;;;;21.33;10.88;;;-5.10;99.90;;;;;;5082772;28;20039;-47
2023/02/09 06:21:40;;;;;;;20.13;8.85;;;-5.00;99.90;;;;;;5055592;28;20032;-45
2023/02/09 06:24:06;;;;;;;17.38;9.30;;;-5.00;99.90;;;;;;5066905;28;20028;-45
2023/02/09 06:26:31;;;;;;;20.55;8.77;;;-5.00;99.90;;;;;;5085222;28;20069;-45
2023/02/09 06:28:57;;;;;;;23.00;9.00;;;-5.00;99.90;;;;;;5067235;28;20127;-47
2023/02/09 06:31:22;;;;;;;21.75;9.13;;;-5.00;99.90;;;;;;5065180;28;20442;-47
2023/02/09 06:33:48;;;;;;;19.35;8.30;;;-5.00;99.90;;;;;;5085993;28;20105;-47
2023/02/09 06:36:13;;;;;;;22.85;9.18;;;-4.90;99.90;;;;;;5054643;28;20075;-46
2023/02/09 06:38:39;;;;;;;18.50;7.97;;;-4.90;99.90;;;;;;5066016;28;20040;-49
2023/02/09 06:41:04;;;;;;;22.60;9.13;;;-5.00;99.90;;;;;;5067370;28;20037;-49
2023/02/09 06:43:30;;;;;;;22.17;8.55;;;-4.90;99.90;;;;;;5086916;28;20093;-45
2023/02/09 06:45:56;;;;;;;19.58;8.55;;;-4.90;99.90;;;;;;5050509;28;20100;-47
2023/02/09 06:48:21;;;;;;;21.27;7.53;;;-4.90;99.90;;;;;;5075472;28;20025;-50
2023/02/09 06:50:47;;;;;;;17.45;8.68;;;-4.90;99.90;;;;;;5052957;28;20023;-48
2023/02/09 06:53:12;;;;;;;19.27;9.35;;;-4.90;99.90;;;;;;5072785;28;20107;-49
2023/02/09 06:55:38;;;;;;;18.83;8.02;;;-4.90;99.90;;;;;;5070816;28;20052;-49
2023/02/09 06:58:03;;;;;;;15.85;8.02;;;-4.90;99.90;;;;;;5086618;28;20028;-50
2023/02/09 07:00:30;;;;;;;24.02;10.77;;;-4.80;99.90;;;;;;5052385;28;20120;-52
2023/02/09 07:02:57;;;;;;;19.83;8.43;;;-4.80;99.90;;;;;;5064785;28;20063;-48
2023/02/09 07:05:22;;;;;;;16.02;7.30;;;-4.80;99.90;;;;;;5074991;28;20021;-51
2023/02/09 07:07:48;;;;;;;21.85;8.13;;;-4.70;99.90;;;;;;5070290;28;20098;-51
2023/02/09 07:10:16;;;;;;;16.90;8.45;;;-4.70;99.90;;;;;;5070503;28;20032;-49
2023/02/09 07:12:44;;;;;;;21.90;10.02;;;-4.70;99.90;;;;;;5074026;28;20056;-48
2023/02/09 07:15:11;;;;;;;13.63;7.15;;;-4.70;99.90;;;;;;5051245;28;20044;-47
2023/02/09 07:17:36;;;;;;;22.15;9.05;;;-4.60;99.90;;;;;;5068823;28;20553;-48
2023/02/09 07:20:03;;;;;;;17.90;8.05;;;-4.50;99.90;;;;;;5071267;28;20051;-51
2023/02/09 07:22:29;;;;;;;16.02;8.00;;;-4.40;99.90;;;;;;5077070;28;20416;-50
2023/02/09 07:24:55;;;;;;;17.38;7.88;;;-4.30;99.90;;;;;;5050969;28;20029;-50
2023/02/09 07:27:20;;;;;;;18.50;8.10;;;-4.20;99.90;;;;;;5073290;28;20036;-47
2023/02/09 07:29:46;;;;;;;21.85;10.02;;;-4.10;99.90;;;;;;5089813;28;20025;-48
2023/02/09 07:32:12;;;;;;;17.15;7.60;;;-3.90;99.70;;;;;;5052416;28;20090;-51
2023/02/09 07:34:38;;;;;;;19.10;9.00;;;-3.70;98.10;;;;;;5089951;28;20107;-51
2023/02/09 07:37:03;;;;;;;25.00;10.82;;;-3.50;96.70;;;;;;5053434;28;20483;-52
2023/02/09 07:39:29;;;;;;;18.60;8.75;;;-3.40;95.50;;;;;;5089601;28;20043;-48
2023/02/09 07:41:55;;;;;;;19.17;10.20;;;-3.20;94.50;;;;;;5054235;28;20051;-50
2023/02/09 07:44:21;;;;;;;18.95;9.18;;;-2.90;94.50;;;;;;5070094;28;20098;-47
2023/02/09 07:46:47;;;;;;;16.55;7.57;;;-2.70;92.90;;;;;;5074248;28;20028;-47
2023/02/09 07:49:12;;;;;;;18.33;7.82;;;-2.60;91.70;;;;;;5089944;28;20093;-50
2023/02/09 07:51:38;;;;;;;19.30;8.82;;;-2.50;91.80;;;;;;5056722;28;20033;-54
2023/02/09 07:54:04;;;;;;;20.25;9.25;;;-2.30;92.20;;;;;;5068556;28;20120;-47
2023/02/09 07:56:30;;;;;;;18.02;9.23;;;-2.10;87.30;;;;;;5076514;28;20035;-48
2023/02/09 07:58:56;;;;;;;15.40;7.75;;;-2.00;84.80;;;;;;5089755;28;20032;-46
2023/02/09 08:01:23;;;;;;;24.20;9.48;;;-1.90;83.00;;;;;;5068776;28;20041;-47
2023/02/09 08:03:49;;;;;;;19.00;9.82;;;-1.80;82.90;;;;;;5089868;28;20445;-47
2023/02/09 08:06:46;;;;;;;19.17;9.48;;;-1.70;77.10;;;;;;5062746;28;20777;-49
2023/02/09 08:09:15;;;;;;;16.15;9.10;;;-1.50;79.10;;;;;;5050153;28;20345;-47
2023/02/09 08:11:52;;;;;;;17.42;8.30;;;-1.40;79.80;;;;;;5074933;28;20021;-45
2023/02/09 08:14:23;;;;;;;54.50;23.00;;;-1.30;83.50;;;;;;5050061;28;20119;-46
2023/02/09 08:17:18;;;;;;;56.58;27.77;;;-1.10;75.90;;;;;;5061809;28;20116;-44
2023/02/09 08:19:38;;;;;;;36.47;18.83;;;-1.00;72.90;;;;;;5049799;28;20555;-44
2023/02/09 08:22:04;;;;;;;37.13;16.00;;;-0.80;72.90;;;;;;5070639;28;20116;-43
2023/02/09 08:24:30;;;;;;;66.80;18.42;;;-0.60;73.20;;;;;;5089068;28;20043;-45
2023/02/09 08:26:56;;;;;;;52.42;20.48;;;-0.40;77.80;;;;;;5057924;28;20067;-45
2023/02/09 08:29:21;;;;;;;42.97;19.13;;;-0.10;72.60;;;;;;5068070;28;20060;-46
2023/02/09 08:31:47;;;;;;;44.28;17.95;;;0.10;69.50;;;;;;5086968;28;20036;-44
2023/02/09 08:34:13;;;;;;;31.15;14.35;;;0.30;72.10;;;;;;5089720;28;20032;-46
2023/02/09 08:36:40;;;;;;;27.20;13.60;;;0.50;69.00;;;;;;5067651;28;20024;-48
2023/02/09 08:39:06;;;;;;;44.95;20.02;;;0.70;66.80;;;;;;5067760;28;20024;-44
2023/02/09 08:41:33;;;;;;;89.45;44.38;;;0.90;63.80;;;;;;5086481;28;20036;-44
2023/02/09 08:43:58;;;;;;;33.47;19.90;;;1.10;59.60;;;;;;5052521;28;20667;-45
2023/02/09 08:46:24;;;;;;;27.98;15.85;;;1.30;64.10;;;;;;5055360;28;20025;-46
2023/02/09 08:48:50;;;;;;;21.52;13.15;;;1.50;64.40;;;;;;5087447;28;20062;-46
2023/02/09 08:51:16;;;;;;;18.67;11.43;;;1.70;59.40;;;;;;5067204;28;20039;-44
2023/02/09 08:53:44;;;;;;;21.92;12.05;;;1.80;58.80;;;;;;5069228;28;20396;-44
2023/02/09 08:56:09;;;;;;;18.52;9.75;;;1.90;60.00;;;;;;5083803;28;20098;-48
2023/02/09 08:58:35;;;;;;;20.33;10.93;;;2.10;54.20;;;;;;5054880;28;20055;-44
2023/02/09 09:01:00;;;;;;;25.77;11.43;;;2.20;57.50;;;;;;5081692;28;20036;-44
2023/02/09 09:03:30;;;;;;;20.00;11.13;;;2.30;57.50;;;;;;5048880;28;20110;-46
2023/02/09 09:05:56;;;;;;;22.55;11.88;;;2.40;50.70;;;;;;5060799;28;20067;-45
2023/02/09 09:08:22;;;;;;;22.05;12.82;;;2.60;57.30;;;;;;5067486;28;20040;-45
2023/02/09 09:10:48;;;;;;;20.33;12.77;;;2.60;45.20;;;;;;5088419;28;20038;-46
2023/02/09 09:13:13;;;;;;;17.23;10.18;;;2.70;45.80;;;;;;5071196;28;20579;-47
2023/02/09 09:15:41;;;;;;;18.38;9.77;;;2.90;53.40;;;;;;5069060;28;20121;-49
2023/02/09 09:18:07;;;;;;;14.25;8.40;;;3.00;51.70;;;;;;5088828;28;20016;-51
2023/02/09 09:20:33;;;;;;;17.88;9.55;;;3.10;52.40;;;;;;5050762;28;20120;-54
2023/02/09 09:22:59;;;;;;;16.25;8.82;;;3.20;48.10;;;;;;5067931;28;20131;-53
2023/02/09 09:25:25;;;;;;;13.05;7.85;;;3.30;47.90;;;;;;5070708;28;20029;-52
2023/02/09 09:27:50;;;;;;;16.05;8.52;;;3.40;49.70;;;;;;5087841;28;20027;-51
2023/02/09 09:30:16;;;;;;;14.40;8.30;;;3.50;48.20;;;;;;5052709;28;20520;-51
2023/02/09 09:32:41;;;;;;;15.15;8.98;;;3.50;45.70;;;;;;5067666;28;20028;-52
2023/02/09 09:35:07;;;;;;;15.43;8.82;;;3.60;46.30;;;;;;5073181;28;20029;-52
2023/02/09 09:37:32;;;;;;;16.27;8.85;;;3.70;47.20;;;;;;5087914;28;20043;-53
2023/02/09 09:39:59;;;;;;;14.52;8.65;;;3.70;43.90;;;;;;5055382;28;20507;-50
2023/02/09 09:42:39;;;;;;;49.65;16.40;;;3.70;42.10;;;;;;5067822;28;20070;-54
2023/02/09 09:45:11;;;;;;;22.40;11.20;;;3.80;39.50;;;;;;5072196;28;20175;-55
2023/02/09 09:47:39;;;;;;;20.88;10.73;;;3.70;36.60;;;;;;5047272;28;20184;-55
2023/02/09 09:50:06;;;;;;;20.13;10.07;;;3.70;35.10;;;;;;5073367;28;20032;-53
2023/02/09 09:52:36;;;;;;;22.88;10.43;;;3.70;37.30;;;;;;5088119;28;20123;-55
2023/02/09 09:55:06;;;;;;;20.70;10.38;;;3.70;35.90;;;;;;5053996;28;20608;-53
2023/02/09 09:57:39;;;;;;;19.13;9.88;;;3.60;35.80;;;;;;5048378;28;20487;-53
2023/02/09 10:00:16;;;;;;;16.23;9.07;;;3.60;33.80;;;;;;5059550;28;20094;-52
2023/02/09 10:02:43;;;;;;;15.60;8.50;;;3.70;34.90;;;;;;5048202;28;20608;-54
2023/02/09 10:05:14;;;;;;;14.40;7.43;;;3.70;37.40;;;;;;5075251;28;20024;-54
2023/02/09 10:07:43;;;;;;;17.50;9.00;;;3.80;36.90;;;;;;5076633;28;20131;-54
2023/02/09 10:10:17;;;;;;;16.58;8.90;;;3.90;32.60;;;;;;5072996;28;20033;-52
2023/02/09 10:12:47;;;;;;;20.20;10.85;;;3.90;35.00;;;;;;5048176;28;20124;-55
2023/02/09 10:15:16;;;;;;;20.63;11.73;;;3.90;30.50;;;;;;5060391;28;20099;-53
2023/02/09 10:17:41;;;;;;;20.48;11.73;;;3.80;26.90;;;;;;5087497;28;20085;-53
2023/02/09 10:20:07;;;;;;;18.25;10.13;;;3.70;29.90;;;;;;5053854;28;20037;-55
2023/02/09 10:22:33;;;;;;;21.77;10.77;;;3.70;29.00;;;;;;5067436;28;20037;-55
2023/02/09 10:25:01;;;;;;;19.73;10.00;;;3.60;28.10;;;;;;5073654;28;20040;-52
2023/02/09 10:27:29;;;;;;;15.25;8.55;;;3.60;25.70;;;;;;5086545;28;20032;-48
2023/02/09 10:30:15;;;;;;;17.48;8.93;;;3.60;30.00;;;;;;5054829;28;20029;-54
2023/02/09 10:32:43;;;;;;;13.32;7.53;;;3.60;28.40;;;;;;5048049;28;20070;-55
2023/02/09 10:35:31;;;;;;;21.42;10.30;;;3.60;27.50;;;;;;5072227;28;20032;-53
2023/02/09 10:37:59;;;;;;;17.98;8.98;;;3.50;25.50;;;;;;5047951;28;20402;-52
2023/02/09 10:40:31;;;;;;;22.27;9.98;;;3.50;25.50;;;;;;5072097;28;20504;-54
2023/02/09 10:42:57;;;;;;;17.80;8.95;;;3.40;28.10;;;;;;5091492;28;20031;-55
2023/02/09 10:45:37;;;;;;;18.67;9.65;;;3.50;28.20;;;;;;5053656;28;20025;-51
2023/02/09 10:48:12;;;;;;;15.98;8.32;;;3.40;25.70;;;;;;5070296;28;20024;-54
2023/02/09 10:50:56;;;;;;;16.80;8.82;;;3.40;27.50;;;;;;5071757;28;20029;-55
2023/02/09 10:53:34;;;;;;;14.73;7.97;;;3.40;25.80;;;;;;5051750;28;20392;-53
2023/02/09 10:56:14;;;;;;;17.73;9.30;;;3.30;25.00;;;;;;5051606;28;20060;-51
2023/02/09 10:58:40;;;;;;;13.93;7.95;;;3.20;23.60;;;;;;5050594;28;20039;-56
2023/02/09 11:01:16;;;;;;;16.67;9.32;;;3.10;25.20;;;;;;5071421;28;20434;-51
2023/02/09 11:04:04;;;;;;;16.95;9.48;;;3.10;26.20;;;;;;5050882;28;20029;-52
2023/02/09 11:06:53;;;;;;;16.83;8.25;;;3.00;25.00;;;;;;5083868;28;20023;-55
2023/02/09 11:09:33;;;;;;;16.42;8.57;;;3.00;25.20;;;;;;5069244;28;20029;-54
2023/02/09 11:11:59;;;;;;;17.85;10.00;;;3.00;25.30;;;;;;5071256;28;20024;-52
2023/02/09 11:14:25;;;;;;;19.23;9.65;;;2.90;25.60;;;;;;5073901;28;20029;-49
2023/02/09 11:17:02;;;;;;;14.95;8.48;;;2.90;24.90;;;;;;5051384;28;20044;-55
2023/02/09 11:19:51;;;;;;;18.05;9.05;;;2.90;25.00;;;;;;5068748;28;20052;-50
2023/02/09 11:22:54;;;;;;;16.65;9.05;;;3.00;26.00;;;;;;5051120;28;20132;-54
2023/02/09 11:25:51;;;;;;;16.15;7.55;;;3.00;26.30;;;;;;5072995;28;20028;-55
2023/02/09 11:28:22;;;;;;;14.63;8.15;;;3.10;28.50;;;;;;5050695;28;20061;-55
2023/02/09 11:31:25;;;;;;;14.90;7.75;;;3.20;26.40;;;;;;5050773;28;20029;-51
2023/02/09 11:34:06;;;;;;;16.92;9.15;;;3.20;26.50;;;;;;5068285;28;20857;-53
2023/02/09 11:37:11;;;;;;;13.10;6.93;;;3.20;24.50;;;;;;5070718;28;20099;-55
2023/02/09 11:39:45;;;;;;;17.77;8.30;;;3.30;25.80;;;;;;5059089;28;20036;-52
2023/02/09 11:45:29;;;;;;;15.60;7.90;;;3.30;22.30;;;;;;5074204;28;20059;-49
2023/02/09 11:48:30;;;;;;;16.73;7.78;;;3.40;23.30;;;;;;5047856;28;20037;-55
2023/02/09 11:51:12;;;;;;;15.38;7.45;;;3.40;21.60;;;;;;5088092;28;20029;-53
2023/02/09 11:53:52;;;;;;;11.32;6.30;;;3.40;21.40;;;;;;5050319;28;20446;-51
2023/02/09 11:56:21;;;;;;;14.77;7.60;;;3.40;21.80;;;;;;5090771;28;20115;-53
2023/02/09 11:59:24;;;;;;;15.65;7.13;;;3.40;22.30;;;;;;5068419;28;20028;-52
2023/02/09 12:02:37;;;;;;;10.05;6.45;;;3.50;19.00;;;;;;5070296;28;20033;-53
2023/02/09 12:05:04;;;;;;;11.20;6.03;;;3.50;20.10;;;;;;5026417;28;20039;-55
2023/02/09 12:08:04;;;;;;;20.60;7.93;;;3.60;21.60;;;;;;5078989;28;20048;-52
2023/02/09 12:10:41;;;;;;;12.43;6.60;;;3.50;18.00;;;;;;5062350;28;20032;-55
2023/02/09 12:13:44;;;;;;;11.85;5.85;;;3.50;18.90;;;;;;5050394;28;20027;-55
2023/02/09 12:16:20;;;;;;;11.20;6.38;;;3.50;19.50;;;;;;5051728;28;20040;-52
2023/02/09 12:18:45;;;;;;;;;;;3.50;19.10;;;;;;5052265;28;20021;-54
2023/02/09 12:21:11;;;;;;;11.43;6.07;;;3.50;19.10;;;;;;5090106;28;19919;-54
2023/02/09 12:23:39;;;;;;;10.27;5.30;;;3.60;20.00;;;;;;5068597;28;20392;-51
2023/02/09 12:26:10;;;;;;;13.52;5.82;;;3.60;21.10;;;;;;5069846;28;20058;-51
2023/02/09 12:28:42;;;;;;;10.82;6.28;;;3.60;20.20;;;;;;5087419;28;20127;-50
2023/02/09 12:31:12;;;;;;;9.98;6.30;;;3.60;19.10;;;;;;5090089;28;20029;-49
2023/02/09 12:33:58;;;;;;;11.57;5.75;;;3.70;21.50;;;;;;5067554;28;20078;-51
2023/02/09 12:36:32;;;;;;;9.52;5.60;;;3.80;20.00;;;;;;5078096;28;20036;-53
2023/02/09 12:39:21;;;;;;;11.05;5.22;;;3.80;21.80;;;;;;5067856;28;20021;-52
2023/02/09 12:41:47;;;;;;;12.27;6.47;;;3.90;18.80;;;;;;5049650;28;20116;-53
2023/02/09 12:44:15;;;;;;;10.50;5.68;;;3.90;19.80;;;;;;5074573;28;20112;-55
2023/02/09 12:46:43;;;;;;;11.82;5.50;;;3.90;18.70;;;;;;5089278;28;20052;-56
2023/02/09 12:49:21;;;;;;;11.27;5.35;;;3.90;19.70;;;;;;5057017;28;20029;-55
2023/02/09 12:51:51;;;;;;;10.02;5.50;;;4.00;19.40;;;;;;5049462;28;20151;-52
2023/02/09 12:54:46;;;;;;;8.70;5.35;;;3.90;18.70;;;;;;5100093;28;20035;-55
2023/02/09 12:57:15;;;;;;;10.95;5.75;;;3.90;19.80;;;;;;5087691;28;20020;-54
2023/02/09 13:00:03;;;;;;;11.82;5.28;;;3.90;19.20;;;;;;5052269;28;20065;-53
2023/02/09 13:02:48;;;;;;;12.10;5.90;;;3.90;17.70;;;;;;5049152;28;20037;-52